King's Park, China
Current Conditions -  °F | °C
As of 3:30 AM on Saturday 29 Nov 2014 (Local Time) from VHHH Reporting Station
Broken Clouds Broken Clouds  
Wind Chill: 77°   Ceiling: 4000
Heat Index: 79°   Visibility: 6mi
Dew Point: 68°   Wind: 9mph
Humidity: 74%   Direction: 100°E
Pressure: 29.91"   Gusts: NA
Location:  22.32°N, 114.17°E
Report Text: VHHH 281930Z 10008KT 070V140 9999 FEW020 BKN040 25/20 Q1013 NOSIG
Loading
Personal Weather Stations






























Interactive Weather Map New forecast layout! Learn more

10-Day Weather Forecast

Advertisements
Track Severe Weather on mobile